Estación de Imperial Alto

Ultimos registro cada 15 minutos 58
Estación Fecha / Hora Temperatura Humedad Lluvia Velocidad Dirección Radiación Presion
58 Imperial Alto 04-05-2026 14:30 22,8 45 0 0,9 354 550 1010,6
57 Imperial Alto 04-05-2026 14:15 22,5 48 0 1,3 313 573 1010,9
56 Imperial Alto 04-05-2026 14:00 21,9 50 0 0,9 264 592 1011,1
55 Imperial Alto 04-05-2026 13:45 22 50 0 0,9 26 610 1011,3
54 Imperial Alto 04-05-2026 13:30 21,5 49 0 1,8 330 622 1011,6
53 Imperial Alto 04-05-2026 13:15 21,6 48 0 0,4 334 635 1011,8
52 Imperial Alto 04-05-2026 13:00 21,2 49 0 0 316 642 1012,1
51 Imperial Alto 04-05-2026 12:45 20,7 52 0 1,3 354 643 1012,3
50 Imperial Alto 04-05-2026 12:30 20,2 53 0 1,3 315 642 1012,6
49 Imperial Alto 04-05-2026 12:15 20,3 54 0 1,3 351 638 1012,6
48 Imperial Alto 04-05-2026 12:00 20,2 55 0 0,4 345 626 1012,8
47 Imperial Alto 04-05-2026 11:45 19,8 58 0 0 319 613 1013
46 Imperial Alto 04-05-2026 11:30 19,8 56 0 0,4 319 598 1013
45 Imperial Alto 04-05-2026 11:15 19,1 58 0 0 281 580 1013,3
44 Imperial Alto 04-05-2026 11:00 18,5 60 0 0 302 555 1013,5
43 Imperial Alto 04-05-2026 10:45 17,4 63 0 1,3 19 529 1013,6
42 Imperial Alto 04-05-2026 10:30 17 64 0 0 331 499 1013,7
41 Imperial Alto 04-05-2026 10:15 16,5 66 0 0 229 466 1013,5
40 Imperial Alto 04-05-2026 10:00 16,1 67 0 0 278 436 1013,5
39 Imperial Alto 04-05-2026 09:45 15,6 68 0 0 258 397 1013,4
38 Imperial Alto 04-05-2026 09:30 15,1 70 0 0 276 359 1013,4
37 Imperial Alto 04-05-2026 09:15 14,8 70 0 0 275 315 1013,5
36 Imperial Alto 04-05-2026 09:00 14,3 71 0 0 340 274 1013,4
35 Imperial Alto 04-05-2026 08:45 13,8 72 0 0 336 232 1013,4
34 Imperial Alto 04-05-2026 08:30 13 74 0 0 24 188 1013,6
33 Imperial Alto 04-05-2026 08:15 11,8 76 0 0 61 121 1013,6
32 Imperial Alto 04-05-2026 08:00 11,4 77 0 0 61 19 1013,5
31 Imperial Alto 04-05-2026 07:45 11,4 76 0 0 65 14 1013,7
30 Imperial Alto 04-05-2026 07:30 11,4 76 0 0 49 11 1013,6
29 Imperial Alto 04-05-2026 07:15 11,7 76 0 0 56 5 1013,5
28 Imperial Alto 04-05-2026 07:00 11,7 76 0 0 62 0 1013,5
27 Imperial Alto 04-05-2026 06:45 11,6 77 0 0 27 0 1013,4
26 Imperial Alto 04-05-2026 06:30 11,7 77 0 0 22 0 1013,4
25 Imperial Alto 04-05-2026 06:15 11,9 75 0 0 232 0 1013,3
24 Imperial Alto 04-05-2026 06:00 12,4 74 0 0 200 0 1013,3
23 Imperial Alto 04-05-2026 05:45 12,9 72 0 0 200 0 1013,2
22 Imperial Alto 04-05-2026 05:30 13,1 74 0 1,3 157 0 1013,1
21 Imperial Alto 04-05-2026 05:15 13,1 75 0 0,9 124 0 1013,2
20 Imperial Alto 04-05-2026 05:00 12,8 75 0 1,8 162 0 1013,1
19 Imperial Alto 04-05-2026 04:30 12,6 74 0 2,2 167 0 1013,3
18 Imperial Alto 04-05-2026 04:15 12,6 75 0 1,3 168 0 1013,3
17 Imperial Alto 04-05-2026 04:00 12,5 74 0 1,8 160 0 1013,2
16 Imperial Alto 04-05-2026 03:45 12,4 75 0 1,8 165 0 1013,3
15 Imperial Alto 04-05-2026 03:30 12,8 73 0 0 60 0 1013,3
14 Imperial Alto 04-05-2026 03:15 12,9 73 0 0 63 0 1013
13 Imperial Alto 04-05-2026 03:00 13,3 72 0 0 172 0 1012,8
12 Imperial Alto 04-05-2026 02:45 13,6 72 0 0 120 0 1012,8
11 Imperial Alto 04-05-2026 02:30 13,7 71 0 0 180 0 1013
10 Imperial Alto 04-05-2026 02:15 13,6 72 0 0,9 124 0 1012,9
9 Imperial Alto 04-05-2026 02:00 13,2 73 0 1,8 151 0 1012,8
8 Imperial Alto 04-05-2026 01:45 12,9 73 0 1,8 159 0 1012,9
7 Imperial Alto 04-05-2026 01:30 12,6 75 0 0 84 0 1012,9
6 Imperial Alto 04-05-2026 01:15 12,7 74 0 0 57 0 1013,1
5 Imperial Alto 04-05-2026 01:00 12,9 72 0 0 167 0 1013,2
4 Imperial Alto 04-05-2026 00:45 13,5 71 0 0 150 0 1012,9
3 Imperial Alto 04-05-2026 00:30 13,1 74 0 0 145 0 1012,8
2 Imperial Alto 04-05-2026 00:15 13,1 72 0 0 165 0 1012,9
1 Imperial Alto 04-05-2026 00:00 13,3 73 0 0,9 156 0 1013